sensor_id;sensor_type;location;lat;lon;timestamp;pressure;altitude;pressure_sealevel;temperature;humidity
5550;BME280;2798;42.716;23.256;2022-11-18T00:01:59;93703.50;;;11.18;88.07
5550;BME280;2798;42.716;23.256;2022-11-18T00:04:24;93707.06;;;11.07;86.71
5550;BME280;2798;42.716;23.256;2022-11-18T00:06:50;93696.47;;;11.10;85.84
5550;BME280;2798;42.716;23.256;2022-11-18T00:09:15;93698.63;;;11.15;89.03
5550;BME280;2798;42.716;23.256;2022-11-18T00:11:40;93686.75;;;11.04;85.85
5550;BME280;2798;42.716;23.256;2022-11-18T00:14:25;93693.75;;;11.11;89.15
5550;BME280;2798;42.716;23.256;2022-11-18T00:16:56;93701.50;;;11.02;87.71
5550;BME280;2798;42.716;23.256;2022-11-18T00:19:24;93702.72;;;11.07;85.84
5550;BME280;2798;42.716;23.256;2022-11-18T00:21:50;93702.06;;;11.05;88.04
5550;BME280;2798;42.716;23.256;2022-11-18T00:24:16;93712.22;;;10.97;86.30
5550;BME280;2798;42.716;23.256;2022-11-18T00:26:41;93710.88;;;11.03;85.85
5550;BME280;2798;42.716;23.256;2022-11-18T00:29:10;93708.69;;;10.98;88.05
5550;BME280;2798;42.716;23.256;2022-11-18T00:31:36;93694.22;;;10.87;85.50
5550;BME280;2798;42.716;23.256;2022-11-18T00:34:05;93695.81;;;10.98;87.62
5550;BME280;2798;42.716;23.256;2022-11-18T00:36:31;93698.97;;;10.92;87.56
5550;BME280;2798;42.716;23.256;2022-11-18T00:38:57;93701.53;;;10.92;85.97
5550;BME280;2798;42.716;23.256;2022-11-18T00:41:23;93707.63;;;10.91;88.59
5550;BME280;2798;42.716;23.256;2022-11-18T00:43:48;93704.13;;;10.82;86.61
5550;BME280;2798;42.716;23.256;2022-11-18T00:46:14;93695.88;;;10.78;85.60
5550;BME280;2798;42.716;23.256;2022-11-18T00:48:40;93697.09;;;10.84;88.59
5550;BME280;2798;42.716;23.256;2022-11-18T00:51:16;93691.94;;;10.74;85.55
5550;BME280;2798;42.716;23.256;2022-11-18T00:53:43;93705.63;;;10.84;87.62
5550;BME280;2798;42.716;23.256;2022-11-18T00:56:08;93696.72;;;10.69;87.98
5550;BME280;2798;42.716;23.256;2022-11-18T00:58:34;93702.78;;;10.78;86.04
5550;BME280;2798;42.716;23.256;2022-11-18T01:01:00;93694.25;;;10.77;88.47
5550;BME280;2798;42.716;23.256;2022-11-18T01:03:26;93701.03;;;10.68;87.70
5550;BME280;2798;42.716;23.256;2022-11-18T01:05:52;93700.91;;;10.70;85.95
5550;BME280;2798;42.716;23.256;2022-11-18T01:08:18;93679.38;;;10.61;88.42
5550;BME280;2798;42.716;23.256;2022-11-18T01:10:45;93697.09;;;10.64;85.79
5550;BME280;2798;42.716;23.256;2022-11-18T01:13:13;93702.50;;;10.71;86.84
5550;BME280;2798;42.716;23.256;2022-11-18T01:15:52;93698.19;;;10.61;88.12
5550;BME280;2798;42.716;23.256;2022-11-18T01:18:20;93692.38;;;10.59;86.03
5550;BME280;2798;42.716;23.256;2022-11-18T01:20:46;93704.56;;;10.67;87.80
5550;BME280;2798;42.716;23.256;2022-11-18T01:23:12;93702.66;;;10.59;87.37
5550;BME280;2798;42.716;23.256;2022-11-18T01:25:39;93706.06;;;10.60;85.99
5550;BME280;2798;42.716;23.256;2022-11-18T01:28:05;93704.97;;;10.62;89.00
5550;BME280;2798;42.716;23.256;2022-11-18T01:30:35;93705.09;;;10.61;87.07
5550;BME280;2798;42.716;23.256;2022-11-18T01:33:01;93705.91;;;10.61;87.92
5550;BME280;2798;42.716;23.256;2022-11-18T01:35:26;93701.03;;;10.58;87.72
5550;BME280;2798;42.716;23.256;2022-11-18T01:37:52;93709.59;;;10.59;85.88
5550;BME280;2798;42.716;23.256;2022-11-18T01:40:17;93704.81;;;10.64;89.79
5550;BME280;2798;42.716;23.256;2022-11-18T01:42:43;93706.88;;;10.60;88.47
5550;BME280;2798;42.716;23.256;2022-11-18T01:48:44;93679.78;;;10.46;89.52
5550;BME280;2798;42.716;23.256;2022-11-18T01:50:57;93703.06;;;10.55;86.81
5550;BME280;2798;42.716;23.256;2022-11-18T01:53:33;93707.00;;;10.59;89.87
5550;BME280;2798;42.716;23.256;2022-11-18T01:56:04;93699.84;;;10.53;88.17
5550;BME280;2798;42.716;23.256;2022-11-18T01:58:55;93696.03;;;10.57;86.81
5550;BME280;2798;42.716;23.256;2022-11-18T02:01:21;93698.75;;;10.55;89.46
5550;BME280;2798;42.716;23.256;2022-11-18T02:03:48;93700.63;;;10.53;87.17
5550;BME280;2798;42.716;23.256;2022-11-18T02:06:15;93700.22;;;10.58;89.78
5550;BME280;2798;42.716;23.256;2022-11-18T02:08:42;93698.63;;;10.47;86.88
5550;BME280;2798;42.716;23.256;2022-11-18T02:11:12;93691.81;;;10.36;86.71
5550;BME280;2798;42.716;23.256;2022-11-18T02:14:00;93704.03;;;10.54;89.51
5550;BME280;2798;42.716;23.256;2022-11-18T02:16:44;93695.50;;;10.53;87.41
5550;BME280;2798;42.716;23.256;2022-11-18T02:19:49;93701.47;;;10.54;87.46
5550;BME280;2798;42.716;23.256;2022-11-18T02:25:30;93698.34;;;10.50;87.20
5550;BME280;2798;42.716;23.256;2022-11-18T02:30:46;93696.72;;;10.49;87.42
5550;BME280;2798;42.716;23.256;2022-11-18T02:33:18;93685.03;;;10.45;88.86
5550;BME280;2798;42.716;23.256;2022-11-18T02:35:55;93678.97;;;10.36;87.75
5550;BME280;2798;42.716;23.256;2022-11-18T02:38:28;93680.06;;;10.53;89.08
5550;BME280;2798;42.716;23.256;2022-11-18T02:40:59;93662.16;;;10.42;89.60
5550;BME280;2798;42.716;23.256;2022-11-18T02:43:31;93665.97;;;10.37;87.41
5550;BME280;2798;42.716;23.256;2022-11-18T02:46:02;93686.16;;;10.52;89.70
5550;BME280;2798;42.716;23.256;2022-11-18T02:48:32;93682.59;;;10.43;86.90
5550;BME280;2798;42.716;23.256;2022-11-18T02:51:01;93683.28;;;10.45;86.66
5550;BME280;2798;42.716;23.256;2022-11-18T02:53:30;93688.31;;;10.47;88.94
5550;BME280;2798;42.716;23.256;2022-11-18T02:55:56;93695.47;;;10.43;86.54
5550;BME280;2798;42.716;23.256;2022-11-18T02:58:24;93701.47;;;10.54;88.64
5550;BME280;2798;42.716;23.256;2022-11-18T03:00:54;93701.28;;;10.45;89.58
5550;BME280;2798;42.716;23.256;2022-11-18T03:03:32;93703.03;;;10.45;86.96
5550;BME280;2798;42.716;23.256;2022-11-18T03:09:10;93700.88;;;10.40;87.54
5550;BME280;2798;42.716;23.256;2022-11-18T03:16:58;93694.66;;;10.33;88.10
5550;BME280;2798;42.716;23.256;2022-11-18T03:25:01;93693.72;;;10.34;89.44
5550;BME280;2798;42.716;23.256;2022-11-18T03:27:35;93691.13;;;10.24;89.05
5550;BME280;2798;42.716;23.256;2022-11-18T03:30:07;93698.84;;;10.34;88.06
5550;BME280;2798;42.716;23.256;2022-11-18T03:32:40;93689.38;;;10.34;90.80
5550;BME280;2798;42.716;23.256;2022-11-18T03:35:28;93697.09;;;10.34;89.49
5550;BME280;2798;42.716;23.256;2022-11-18T03:38:01;93698.44;;;10.38;90.49
5550;BME280;2798;42.716;23.256;2022-11-18T03:40:30;93680.72;;;10.25;89.75
5550;BME280;2798;42.716;23.256;2022-11-18T03:43:03;93688.44;;;10.35;88.11
5550;BME280;2798;42.716;23.256;2022-11-18T03:45:35;93674.50;;;10.38;90.35
5550;BME280;2798;42.716;23.256;2022-11-18T03:48:11;93670.69;;;10.22;88.40
5550;BME280;2798;42.716;23.256;2022-11-18T03:50:43;93669.78;;;10.33;88.71
5550;BME280;2798;42.716;23.256;2022-11-18T03:53:10;93676.66;;;10.23;89.05
5550;BME280;2798;42.716;23.256;2022-11-18T03:55:43;93657.19;;;10.20;87.78
5550;BME280;2798;42.716;23.256;2022-11-18T03:58:20;93666.78;;;10.28;90.86
5550;BME280;2798;42.716;23.256;2022-11-18T04:00:51;93669.63;;;10.25;88.49
5550;BME280;2798;42.716;23.256;2022-11-18T04:03:18;93671.94;;;10.38;88.20
5550;BME280;2798;42.716;23.256;2022-11-18T04:05:43;93666.50;;;10.31;91.42
5550;BME280;2798;42.716;23.256;2022-11-18T04:08:24;93672.59;;;10.30;88.32
5550;BME280;2798;42.716;23.256;2022-11-18T04:13:24;93667.47;;;10.20;88.86
5550;BME280;2798;42.716;23.256;2022-11-18T04:15:53;93672.44;;;10.32;88.02
5550;BME280;2798;42.716;23.256;2022-11-18T04:18:18;93669.78;;;10.33;89.32
5550;BME280;2798;42.716;23.256;2022-11-18T04:20:44;93667.59;;;10.29;88.47
5550;BME280;2798;42.716;23.256;2022-11-18T04:23:10;93677.50;;;10.33;88.44
5550;BME280;2798;42.716;23.256;2022-11-18T04:25:35;93687.78;;;10.33;92.08
5550;BME280;2798;42.716;23.256;2022-11-18T04:28:01;93687.63;;;10.35;89.35
5550;BME280;2798;42.716;23.256;2022-11-18T04:30:26;93678.28;;;10.34;90.09
5550;BME280;2798;42.716;23.256;2022-11-18T04:32:52;93693.31;;;10.38;91.59
5550;BME280;2798;42.716;23.256;2022-11-18T04:35:18;93685.72;;;10.37;89.33
5550;BME280;2798;42.716;23.256;2022-11-18T04:37:43;93698.59;;;10.37;90.48
5550;BME280;2798;42.716;23.256;2022-11-18T04:40:09;93698.19;;;10.22;88.58
5550;BME280;2798;42.716;23.256;2022-11-18T04:42:34;93700.75;;;10.22;88.81
5550;BME280;2798;42.716;23.256;2022-11-18T04:45:00;93704.81;;;10.24;90.15
5550;BME280;2798;42.716;23.256;2022-11-18T04:47:25;93742.97;;;10.19;89.17
5550;BME280;2798;42.716;23.256;2022-11-18T04:49:51;93710.91;;;10.33;90.72
5550;BME280;2798;42.716;23.256;2022-11-18T04:52:17;93694.38;;;10.16;89.02
5550;BME280;2798;42.716;23.256;2022-11-18T04:54:43;93702.66;;;10.20;88.71
5550;BME280;2798;42.716;23.256;2022-11-18T04:57:09;93700.50;;;10.25;89.44
5550;BME280;2798;42.716;23.256;2022-11-18T04:59:34;93684.91;;;9.97;88.50
5550;BME280;2798;42.716;23.256;2022-11-18T05:02:00;93709.25;;;10.22;88.85
5550;BME280;2798;42.716;23.256;2022-11-18T05:04:28;93699.13;;;10.21;89.57
5550;BME280;2798;42.716;23.256;2022-11-18T05:06:57;93700.91;;;10.20;89.24
5550;BME280;2798;42.716;23.256;2022-11-18T05:09:25;93695.22;;;10.26;88.57
5550;BME280;2798;42.716;23.256;2022-11-18T05:11:50;93693.31;;;10.09;87.94
5550;BME280;2798;42.716;23.256;2022-11-18T05:14:35;93702.22;;;10.14;88.26
5550;BME280;2798;42.716;23.256;2022-11-18T05:17:02;93698.31;;;10.20;89.57
5550;BME280;2798;42.716;23.256;2022-11-18T05:19:27;93700.28;;;9.87;88.52
5550;BME280;2798;42.716;23.256;2022-11-18T05:21:53;93706.03;;;10.20;89.03
5550;BME280;2798;42.716;23.256;2022-11-18T05:24:19;93706.84;;;10.21;90.70
5550;BME280;2798;42.716;23.256;2022-11-18T05:26:45;93717.50;;;10.06;88.63
5550;BME280;2798;42.716;23.256;2022-11-18T05:29:11;93718.50;;;10.25;88.48
5550;BME280;2798;42.716;23.256;2022-11-18T05:31:37;93697.38;;;10.21;90.20
5550;BME280;2798;42.716;23.256;2022-11-18T05:34:02;93707.94;;;10.28;89.10
5550;BME280;2798;42.716;23.256;2022-11-18T05:36:28;93699.13;;;10.21;89.67
5550;BME280;2798;42.716;23.256;2022-11-18T05:38:53;93706.56;;;10.04;88.57
5550;BME280;2798;42.716;23.256;2022-11-18T05:41:19;93706.56;;;10.24;89.17
5550;BME280;2798;42.716;23.256;2022-11-18T05:44:13;93709.13;;;10.14;89.58
5550;BME280;2798;42.716;23.256;2022-11-18T05:46:39;93712.94;;;10.20;88.86
5550;BME280;2798;42.716;23.256;2022-11-18T05:49:05;93709.13;;;10.34;91.04
5550;BME280;2798;42.716;23.256;2022-11-18T05:51:31;93708.19;;;10.25;90.68
5550;BME280;2798;42.716;23.256;2022-11-18T05:53:57;93710.09;;;10.33;89.75
5550;BME280;2798;42.716;23.256;2022-11-18T05:56:29;93692.38;;;10.30;91.80
5550;BME280;2798;42.716;23.256;2022-11-18T05:58:57;93711.56;;;10.25;89.96
5550;BME280;2798;42.716;23.256;2022-11-18T06:01:53;93711.16;;;10.40;89.35
5550;BME280;2798;42.716;23.256;2022-11-18T06:06:51;93705.50;;;10.36;89.94
5550;BME280;2798;42.716;23.256;2022-11-18T06:09:22;93705.50;;;10.46;89.46
5550;BME280;2798;42.716;23.256;2022-11-18T06:11:52;93688.97;;;10.29;90.42
5550;BME280;2798;42.716;23.256;2022-11-18T06:16:57;93715.78;;;10.46;89.82
5550;BME280;2798;42.716;23.256;2022-11-18T06:19:25;93711.19;;;10.50;88.29
5550;BME280;2798;42.716;23.256;2022-11-18T06:21:50;93710.66;;;10.66;90.37
5550;BME280;2798;42.716;23.256;2022-11-18T06:24:16;93702.41;;;10.53;89.03
5550;BME280;2798;42.716;23.256;2022-11-18T06:26:43;93705.78;;;10.53;88.31
5550;BME280;2798;42.716;23.256;2022-11-18T06:29:10;93705.78;;;10.63;90.81
5550;BME280;2798;42.716;23.256;2022-11-18T06:31:37;93706.34;;;10.47;88.14
5550;BME280;2798;42.716;23.256;2022-11-18T06:34:02;93704.31;;;10.60;88.00
5550;BME280;2798;42.716;23.256;2022-11-18T06:36:28;93686.31;;;10.50;89.79
5550;BME280;2798;42.716;23.256;2022-11-18T06:38:53;93694.16;;;10.59;88.58
5550;BME280;2798;42.716;23.256;2022-11-18T06:41:19;93687.91;;;10.71;89.72
5550;BME280;2798;42.716;23.256;2022-11-18T06:43:44;93690.34;;;10.63;89.07
5550;BME280;2798;42.716;23.256;2022-11-18T06:46:12;93706.47;;;10.75;89.61
5550;BME280;2798;42.716;23.256;2022-11-18T06:48:57;93691.63;;;10.97;93.95
5550;BME280;2798;42.716;23.256;2022-11-18T06:51:23;93698.72;;;10.75;89.20
5550;BME280;2798;42.716;23.256;2022-11-18T06:53:49;93698.44;;;10.88;89.47
5550;BME280;2798;42.716;23.256;2022-11-18T06:56:16;93700.59;;;10.93;91.84
5550;BME280;2798;42.716;23.256;2022-11-18T06:58:42;93687.47;;;10.86;90.57
5550;BME280;2798;42.716;23.256;2022-11-18T07:01:21;93693.50;;;11.05;92.49
5550;BME280;2798;42.716;23.256;2022-11-18T07:03:48;93697.75;;;10.86;89.37
5550;BME280;2798;42.716;23.256;2022-11-18T07:06:16;93694.22;;;10.97;89.22
5550;BME280;2798;42.716;23.256;2022-11-18T07:08:42;93700.84;;;10.99;89.68
5550;BME280;2798;42.716;23.256;2022-11-18T07:11:11;93692.34;;;10.89;89.54
5550;BME280;2798;42.716;23.256;2022-11-18T07:13:37;93701.63;;;11.10;89.19
5550;BME280;2798;42.716;23.256;2022-11-18T07:16:06;93696.47;;;11.10;89.53
5550;BME280;2798;42.716;23.256;2022-11-18T07:18:33;93678.59;;;11.08;89.20
5550;BME280;2798;42.716;23.256;2022-11-18T07:21:01;93682.88;;;11.28;91.51
5550;BME280;2798;42.716;23.256;2022-11-18T07:23:28;93670.84;;;11.18;88.68
5550;BME280;2798;42.716;23.256;2022-11-18T07:25:54;93677.72;;;11.28;88.58
5550;BME280;2798;42.716;23.256;2022-11-18T07:28:19;93673.91;;;11.32;89.65
5550;BME280;2798;42.716;23.256;2022-11-18T07:30:45;93684.25;;;11.22;88.82
5550;BME280;2798;42.716;23.256;2022-11-18T07:33:10;93678.91;;;11.33;88.12
5550;BME280;2798;42.716;23.256;2022-11-18T07:35:35;93674.16;;;11.38;89.55
5550;BME280;2798;42.716;23.256;2022-11-18T07:38:01;93666.69;;;11.35;88.86
5550;BME280;2798;42.716;23.256;2022-11-18T07:40:26;93676.69;;;11.48;88.85
5550;BME280;2798;42.716;23.256;2022-11-18T07:42:52;93679.84;;;11.42;88.02
5550;BME280;2798;42.716;23.256;2022-11-18T07:45:18;93688.59;;;11.49;87.93
5550;BME280;2798;42.716;23.256;2022-11-18T07:47:43;93693.53;;;11.71;90.57
5550;BME280;2798;42.716;23.256;2022-11-18T07:50:09;93693.91;;;11.76;92.72
5550;BME280;2798;42.716;23.256;2022-11-18T07:52:34;93675.88;;;11.76;92.17
5550;BME280;2798;42.716;23.256;2022-11-18T07:54:59;93691.50;;;11.93;92.45
5550;BME280;2798;42.716;23.256;2022-11-18T07:57:25;93689.38;;;12.06;94.21
5550;BME280;2798;42.716;23.256;2022-11-18T07:59:50;93656.22;;;11.93;95.75
5550;BME280;2798;42.716;23.256;2022-11-18T08:02:16;93702.69;;;12.30;96.64
5550;BME280;2798;42.716;23.256;2022-11-18T08:04:41;93706.31;;;12.37;96.85
5550;BME280;2798;42.716;23.256;2022-11-18T08:07:09;93692.00;;;12.43;99.39
5550;BME280;2798;42.716;23.256;2022-11-18T08:09:35;93710.41;;;12.66;100.00
5550;BME280;2798;42.716;23.256;2022-11-18T08:12:00;93707.38;;;12.71;100.00
5550;BME280;2798;42.716;23.256;2022-11-18T08:14:26;93702.75;;;12.75;100.00
5550;BME280;2798;42.716;23.256;2022-11-18T08:16:53;93712.75;;;12.78;99.80
5550;BME280;2798;42.716;23.256;2022-11-18T08:19:18;93692.63;;;12.81;99.73
5550;BME280;2798;42.716;23.256;2022-11-18T08:21:44;93703.81;;;12.90;99.21
5550;BME280;2798;42.716;23.256;2022-11-18T08:24:09;93682.09;;;13.01;100.00
5550;BME280;2798;42.716;23.256;2022-11-18T08:26:35;93687.97;;;13.12;100.00
5550;BME280;2798;42.716;23.256;2022-11-18T08:29:00;93693.19;;;13.20;100.00
5550;BME280;2798;42.716;23.256;2022-11-18T08:31:28;93681.63;;;13.32;100.00
5550;BME280;2798;42.716;23.256;2022-11-18T08:33:59;93672.38;;;13.56;100.00
5550;BME280;2798;42.716;23.256;2022-11-18T08:36:29;93671.47;;;13.74;100.00
5550;BME280;2798;42.716;23.256;2022-11-18T08:38:56;93665.53;;;13.90;100.00
5550;BME280;2798;42.716;23.256;2022-11-18T08:41:40;93657.63;;;14.00;100.00
5550;BME280;2798;42.716;23.256;2022-11-18T08:44:09;93654.44;;;14.15;100.00
5550;BME280;2798;42.716;23.256;2022-11-18T08:46:35;93656.72;;;14.26;100.00
5550;BME280;2798;42.716;23.256;2022-11-18T08:49:01;93646.03;;;14.38;100.00
5550;BME280;2798;42.716;23.256;2022-11-18T08:51:26;93644.41;;;14.45;100.00
5550;BME280;2798;42.716;23.256;2022-11-18T08:53:52;93633.25;;;14.44;100.00
5550;BME280;2798;42.716;23.256;2022-11-18T08:56:19;93624.34;;;14.55;100.00
5550;BME280;2798;42.716;23.256;2022-11-18T08:58:45;93617.38;;;14.73;100.00
5550;BME280;2798;42.716;23.256;2022-11-18T09:01:11;93597.44;;;14.90;100.00
5550;BME280;2798;42.716;23.256;2022-11-18T09:03:37;93599.00;;;15.07;100.00
5550;BME280;2798;42.716;23.256;2022-11-18T09:06:11;93602.72;;;15.22;100.00
5550;BME280;2798;42.716;23.256;2022-11-18T09:08:37;93582.69;;;15.39;100.00
5550;BME280;2798;42.716;23.256;2022-11-18T09:11:12;93601.41;;;15.57;100.00
5550;BME280;2798;42.716;23.256;2022-11-18T09:13:38;93636.47;;;15.77;100.00
5550;BME280;2798;42.716;23.256;2022-11-18T09:16:04;93601.22;;;15.91;100.00
5550;BME280;2798;42.716;23.256;2022-11-18T09:18:30;93594.69;;;16.03;100.00
5550;BME280;2798;42.716;23.256;2022-11-18T09:21:00;93617.47;;;16.16;100.00
5550;BME280;2798;42.716;23.256;2022-11-18T09:23:27;93595.13;;;16.30;100.00
5550;BME280;2798;42.716;23.256;2022-11-18T09:26:03;93602.03;;;16.38;100.00
5550;BME280;2798;42.716;23.256;2022-11-18T09:28:29;93585.56;;;16.46;100.00
5550;BME280;2798;42.716;23.256;2022-11-18T09:30:55;93591.41;;;16.48;100.00
5550;BME280;2798;42.716;23.256;2022-11-18T09:33:21;93584.09;;;16.52;100.00
5550;BME280;2798;42.716;23.256;2022-11-18T09:35:47;93578.88;;;16.52;100.00
5550;BME280;2798;42.716;23.256;2022-11-18T09:38:12;93566.88;;;16.51;99.05
5550;BME280;2798;42.716;23.256;2022-11-18T09:46:20;93534.09;;;16.50;97.57
5550;BME280;2798;42.716;23.256;2022-11-18T09:48:46;93539.47;;;16.48;96.35
5550;BME280;2798;42.716;23.256;2022-11-18T09:51:38;93542.25;;;16.47;95.64
5550;BME280;2798;42.716;23.256;2022-11-18T09:54:10;93539.84;;;16.45;94.96
5550;BME280;2798;42.716;23.256;2022-11-18T09:56:38;93552.19;;;16.43;94.16
5550;BME280;2798;42.716;23.256;2022-11-18T09:59:05;93532.75;;;16.39;94.13
5550;BME280;2798;42.716;23.256;2022-11-18T10:01:30;93527.28;;;16.34;93.80
5550;BME280;2798;42.716;23.256;2022-11-18T10:03:56;93529.88;;;16.34;93.13
5550;BME280;2798;42.716;23.256;2022-11-18T10:06:26;93519.66;;;16.32;93.13
5550;BME280;2798;42.716;23.256;2022-11-18T10:11:45;93525.91;;;16.23;93.63
5550;BME280;2798;42.716;23.256;2022-11-18T10:14:45;93522.78;;;16.27;93.54
5550;BME280;2798;42.716;23.256;2022-11-18T10:20:20;93529.22;;;16.31;92.99
5550;BME280;2798;42.716;23.256;2022-11-18T10:22:55;93507.03;;;16.29;92.68
5550;BME280;2798;42.716;23.256;2022-11-18T10:25:22;93531.41;;;16.28;92.09
5550;BME280;2798;42.716;23.256;2022-11-18T10:27:49;93511.41;;;16.28;92.69
5550;BME280;2798;42.716;23.256;2022-11-18T10:30:21;93497.28;;;16.31;93.31
5550;BME280;2798;42.716;23.256;2022-11-18T10:33:00;93502.50;;;16.31;92.95
5550;BME280;2798;42.716;23.256;2022-11-18T10:35:28;93504.56;;;16.36;92.94
5550;BME280;2798;42.716;23.256;2022-11-18T10:38:06;93484.06;;;16.41;92.96
5550;BME280;2798;42.716;23.256;2022-11-18T10:40:55;93485.94;;;16.47;92.85
5550;BME280;2798;42.716;23.256;2022-11-18T10:51:35;93474.47;;;16.72;92.15
5550;BME280;2798;42.716;23.256;2022-11-18T10:57:11;93459.31;;;16.75;91.30
5550;BME280;2798;42.716;23.256;2022-11-18T10:59:56;93464.50;;;16.75;91.65
5550;BME280;2798;42.716;23.256;2022-11-18T11:02:38;93459.50;;;16.74;91.59
5550;BME280;2798;42.716;23.256;2022-11-18T11:05:21;93467.47;;;16.72;91.46
5550;BME280;2798;42.716;23.256;2022-11-18T11:10:26;93446.88;;;16.71;89.89
5550;BME280;2798;42.716;23.256;2022-11-18T11:12:58;93463.00;;;16.81;89.72
5550;BME280;2798;42.716;23.256;2022-11-18T11:15:35;93456.00;;;16.81;90.04
5550;BME280;2798;42.716;23.256;2022-11-18T11:18:10;93441.03;;;16.84;90.03
5550;BME280;2798;42.716;23.256;2022-11-18T11:21:13;93449.81;;;16.83;89.62
5550;BME280;2798;42.716;23.256;2022-11-18T11:23:40;93434.97;;;16.76;89.51
5550;BME280;2798;42.716;23.256;2022-11-18T11:26:41;93436.47;;;16.86;88.90
5550;BME280;2798;42.716;23.256;2022-11-18T11:37:49;93422.03;;;16.83;88.62
5550;BME280;2798;42.716;23.256;2022-11-18T11:40:53;93420.44;;;16.82;88.75
5550;BME280;2798;42.716;23.256;2022-11-18T11:43:37;93419.63;;;16.81;88.93
5550;BME280;2798;42.716;23.256;2022-11-18T11:49:24;93423.41;;;16.79;88.65
5550;BME280;2798;42.716;23.256;2022-11-18T11:52:01;93422.34;;;16.73;88.64
5550;BME280;2798;42.716;23.256;2022-11-18T12:02:28;93421.25;;;16.52;88.77
5550;BME280;2798;42.716;23.256;2022-11-18T12:05:07;93428.19;;;16.45;89.05
5550;BME280;2798;42.716;23.256;2022-11-18T12:07:50;93418.25;;;16.34;89.05
5550;BME280;2798;42.716;23.256;2022-11-18T12:20:57;93383.78;;;16.10;89.97
5550;BME280;2798;42.716;23.256;2022-11-18T12:23:28;93376.00;;;16.10;90.50
5550;BME280;2798;42.716;23.256;2022-11-18T12:26:07;93362.19;;;16.09;90.45
5550;BME280;2798;42.716;23.256;2022-11-18T12:28:43;93362.19;;;16.09;90.44
5550;BME280;2798;42.716;23.256;2022-11-18T12:34:04;93355.94;;;16.03;90.40
5550;BME280;2798;42.716;23.256;2022-11-18T12:36:41;93367.16;;;16.04;89.79
5550;BME280;2798;42.716;23.256;2022-11-18T12:41:59;93360.97;;;16.05;90.21
5550;BME280;2798;42.716;23.256;2022-11-18T12:44:46;93345.94;;;16.00;89.93
5550;BME280;2798;42.716;23.256;2022-11-18T12:47:16;93352.63;;;16.10;89.78
5550;BME280;2798;42.716;23.256;2022-11-18T12:54:55;93336.06;;;16.11;89.79
5550;BME280;2798;42.716;23.256;2022-11-18T12:57:27;93331.06;;;16.09;89.46
5550;BME280;2798;42.716;23.256;2022-11-18T12:59:54;93334.47;;;16.10;88.82
5550;BME280;2798;42.716;23.256;2022-11-18T13:02:27;93337.53;;;16.13;88.55
5550;BME280;2798;42.716;23.256;2022-11-18T13:07:32;93315.75;;;16.14;87.60
5550;BME280;2798;42.716;23.256;2022-11-18T13:10:23;93312.16;;;16.15;86.51
5550;BME280;2798;42.716;23.256;2022-11-18T13:12:50;93298.78;;;16.12;85.71
5550;BME280;2798;42.716;23.256;2022-11-18T13:15:17;93296.59;;;16.15;84.33
5550;BME280;2798;42.716;23.256;2022-11-18T13:18:18;93312.00;;;16.17;83.29
5550;BME280;2798;42.716;23.256;2022-11-18T13:20:54;93305.66;;;16.19;82.50
5550;BME280;2798;42.716;23.256;2022-11-18T13:23:31;93297.22;;;16.17;83.45
5550;BME280;2798;42.716;23.256;2022-11-18T13:26:25;93304.84;;;15.89;82.34
5550;BME280;2798;42.716;23.256;2022-11-18T13:31:48;93285.50;;;15.61;83.25
5550;BME280;2798;42.716;23.256;2022-11-18T13:34:21;93265.66;;;15.53;83.50
5550;BME280;2798;42.716;23.256;2022-11-18T13:36:49;93263.78;;;15.47;82.93
5550;BME280;2798;42.716;23.256;2022-11-18T13:39:29;93274.84;;;15.56;82.99
5550;BME280;2798;42.716;23.256;2022-11-18T13:41:59;93279.75;;;15.36;82.57
5550;BME280;2798;42.716;23.256;2022-11-18T13:44:33;93263.41;;;15.35;83.18
5550;BME280;2798;42.716;23.256;2022-11-18T13:47:09;93266.69;;;15.29;82.88
5550;BME280;2798;42.716;23.256;2022-11-18T13:49:43;93266.16;;;15.18;83.07
5550;BME280;2798;42.716;23.256;2022-11-18T13:52:15;93273.94;;;15.33;83.71
5550;BME280;2798;42.716;23.256;2022-11-18T13:54:41;93276.06;;;15.15;83.24
5550;BME280;2798;42.716;23.256;2022-11-18T13:57:16;93264.53;;;15.17;83.38
5550;BME280;2798;42.716;23.256;2022-11-18T13:59:45;93271.53;;;15.17;83.82
5550;BME280;2798;42.716;23.256;2022-11-18T14:02:13;93270.59;;;15.10;83.55
5550;BME280;2798;42.716;23.256;2022-11-18T14:04:51;93266.16;;;15.18;84.35
5550;BME280;2798;42.716;23.256;2022-11-18T14:07:34;93257.09;;;14.99;83.92
5550;BME280;2798;42.716;23.256;2022-11-18T14:10:07;93273.66;;;15.13;83.60
5550;BME280;2798;42.716;23.256;2022-11-18T14:12:34;93264.22;;;14.97;83.61
5550;BME280;2798;42.716;23.256;2022-11-18T14:15:21;93282.31;;;15.05;84.12
5550;BME280;2798;42.716;23.256;2022-11-18T14:20:53;93265.63;;;15.23;82.70
5550;BME280;2798;42.716;23.256;2022-11-18T14:23:27;93275.75;;;15.33;82.87
5550;BME280;2798;42.716;23.256;2022-11-18T14:25:53;93231.84;;;15.16;83.03
5550;BME280;2798;42.716;23.256;2022-11-18T14:28:26;93257.25;;;15.36;82.19
5550;BME280;2798;42.716;23.256;2022-11-18T14:31:03;93241.06;;;15.34;81.97
5550;BME280;2798;42.716;23.256;2022-11-18T14:33:31;93267.50;;;15.44;81.36
5550;BME280;2798;42.716;23.256;2022-11-18T14:35:59;93258.41;;;15.49;80.78
5550;BME280;2798;42.716;23.256;2022-11-18T14:40:58;93267.06;;;15.56;80.58
5550;BME280;2798;42.716;23.256;2022-11-18T14:43:25;93266.53;;;15.61;80.09
5550;BME280;2798;42.716;23.256;2022-11-18T14:45:56;93268.16;;;15.62;79.93
5550;BME280;2798;42.716;23.256;2022-11-18T14:48:24;93271.19;;;15.65;80.21
5550;BME280;2798;42.716;23.256;2022-11-18T14:50:50;93272.81;;;15.66;79.70
5550;BME280;2798;42.716;23.256;2022-11-18T14:53:17;93274.41;;;15.67;79.68
5550;BME280;2798;42.716;23.256;2022-11-18T14:55:44;93275.88;;;15.70;79.39
5550;BME280;2798;42.716;23.256;2022-11-18T14:58:13;93278.47;;;15.70;79.31
5550;BME280;2798;42.716;23.256;2022-11-18T15:00:46;93283.00;;;15.68;79.05
5550;BME280;2798;42.716;23.256;2022-11-18T15:03:12;93289.44;;;15.72;78.73
5550;BME280;2798;42.716;23.256;2022-11-18T15:05:38;93297.22;;;15.72;78.42
5550;BME280;2798;42.716;23.256;2022-11-18T15:08:04;93306.28;;;15.76;78.75
5550;BME280;2798;42.716;23.256;2022-11-18T15:10:29;93291.84;;;15.74;78.71
5550;BME280;2798;42.716;23.256;2022-11-18T15:12:55;93302.06;;;15.75;79.04
5550;BME280;2798;42.716;23.256;2022-11-18T15:15:21;93305.00;;;15.72;79.78